Flight Track Log - Related Links

Times and Time Zones

All times are in EDT time to prevent confusion due to time zone crossing. See the N5623V flight status page for this flight to view local times or setup timezone preferences in your user account.

Time Position Orientation Groundspeed Altitude Reporting Facility
EDT Latitude Longitude Course Direction KTS MPH feet Rate Location/Type
Thu 04:32:22 PM 35.9933 -102.6711 262° West 92 106 6,900  Level Albuquerque Center
Thu 04:33:24 PM 35.9892 -102.7097 262° West 107 123 7,200 339 Climbing Albuquerque Center
Thu 04:34:26 PM 35.9850 -102.7478 262° West 109 125 7,600 532 Climbing Albuquerque Center
Thu 04:35:28 PM 35.9800 -102.7919 262° West 109 125 8,300 581 Climbing Albuquerque Center
Thu 04:36:30 PM 35.9742 -102.8297 259° West 110 127 8,800 484 Climbing Albuquerque Center
Thu 04:37:32 PM 35.9703 -102.8683 263° West 110 127 9,300 585 Climbing Albuquerque Center
Thu 04:38:33 PM 35.9653 -102.9078 261° West 110 127 10,000 439 Climbing Albuquerque Center
Thu 04:39:35 PM 35.9597 -102.9472 260° West 113 130 10,200  Climbing Albuquerque Center
Thu 04:40:37 PM 35.9550 -102.9953 263° West 133 153 10,000 -97 Descending Albuquerque Center
Thu 04:41:39 PM 35.9497 -103.0422 262° West 136 157 10,000  Level Albuquerque Center
Thu 04:42:41 PM 35.9436 -103.0892 261° West 136 157 10,000  Level Albuquerque Center
Thu 04:43:43 PM 35.9397 -103.1336 264° West 135 155 10,000 48 Level Albuquerque Center
Thu 04:44:45 PM 35.9317 -103.1850 259° West 133 153 10,100  Climbing Albuquerque Center
Thu 04:45:46 PM 35.9264 -103.2297 262° West 132 152 10,000 49 Descending Albuquerque Center
Thu 04:46:48 PM 35.9194 -103.2733 259° West 132 152 10,200 48 Climbing Albuquerque Center
Thu 04:47:50 PM 35.9156 -103.3175 264° West 130 150 10,100  Descending Albuquerque Center
Thu 04:48:52 PM 35.9100 -103.3625 261° West 130 150 10,200 97 Climbing Albuquerque Center
Thu 04:49:54 PM 35.9028 -103.4078 259° West 130 150 10,300 -97 Climbing Albuquerque Center
Thu 04:50:56 PM 35.8981 -103.4536 263° West 131 151 10,000 -48 Descending Albuquerque Center
Thu 04:51:58 PM 35.8903 -103.5000 258° West 133 153 10,200 242 Climbing Albuquerque Center
Thu 04:53:00 PM 35.8856 -103.5544 264° West 138 159 10,500 341 Climbing Albuquerque Center
Thu 04:54:01 PM 35.8817 -103.5967 264° West 130 150 10,900 341 Climbing Albuquerque Center
Thu 04:55:03 PM 35.8758 -103.6367 260° West 126 145 11,200 339 Climbing Albuquerque Center
Thu 04:56:05 PM 35.8706 -103.6733 260° West 117 135 11,600 387 Climbing Albuquerque Center
Thu 04:57:07 PM 35.8661 -103.7114 262° West 114 131 12,000 290 Climbing Albuquerque Center
Thu 04:58:09 PM 35.8611 -103.7469 260° West 111 128 12,200 48 Climbing Albuquerque Center
Thu 04:59:11 PM 35.8550 -103.7900 260° West 120 138 12,100 -48 Descending Albuquerque Center
Thu 05:00:13 PM 35.8486 -103.8447 262° West 130 150 12,100 -97 Level Albuquerque Center
Thu 05:01:15 PM 35.8436 -103.8892 262° West 131 151 11,900 -145 Descending Albuquerque Center
Thu 05:02:17 PM 35.8372 -103.9342 260° West 131 151 11,800 -48 Descending Albuquerque Center
Thu 05:03:19 PM 35.8319 -103.9767 261° West 131 151 11,800 48 Level Albuquerque Center
Thu 05:04:21 PM 35.8256 -104.0175 259° West 126 145 11,900  Climbing Albuquerque Center
Thu 05:05:23 PM 35.8211 -104.0594 263° West 126 145 11,800  Descending Albuquerque Center
Thu 05:06:25 PM 35.8139 -104.1006 258° West 125 144 11,900  Climbing Albuquerque Center
Thu 05:07:27 PM 35.8094 -104.1519 264° West 125 144 11,800  Descending Albuquerque Center
Thu 05:08:29 PM 35.8019 -104.1947 258° West 125 144 11,900 145 Climbing Albuquerque Center
Thu 05:09:31 PM 35.7969 -104.2375 262° West 126 145 12,100 97 Climbing Albuquerque Center
Thu 05:10:33 PM 35.7906 -104.2789 259° West 125 144 12,100  Level Albuquerque Center
Thu 05:11:35 PM 35.7836 -104.3200 258° West 125 144 12,100 -48 Level Albuquerque Center
Thu 05:12:38 PM 35.7767 -104.3633 259° West 125 144 12,000 -48 Descending Albuquerque Center
Thu 05:13:40 PM 35.7689 -104.4158 260° West 127 146 12,000  Level Albuquerque Center
Thu 05:14:42 PM 35.7619 -104.4606 259° West 128 147 12,000 48 Level Albuquerque Center
Thu 05:15:44 PM 35.7550 -104.5050 259° West 128 147 12,100  Climbing Albuquerque Center
Thu 05:16:46 PM 35.7486 -104.5483 260° West 128 147 12,000  Descending Albuquerque Center
Thu 05:17:48 PM 35.7422 -104.5933 260° West 128 147 12,100  Climbing Albuquerque Center
Thu 05:18:50 PM 35.7344 -104.6383 258° West 129 148 12,000 -48 Descending Albuquerque Center
Thu 05:19:52 PM 35.7275 -104.6842 259° West 132 152 12,000  Level Albuquerque Center
Thu 05:20:54 PM 35.7189 -104.7364 259° West 132 152 12,000  Level Albuquerque Center
Thu 05:21:56 PM 35.7122 -104.7803 259° West 132 152 12,000  Level Albuquerque Center
Thu 05:22:58 PM 35.7053 -104.8275 260° West 133 153 12,000 48 Level Albuquerque Center
Thu 05:24:01 PM 35.6975 -104.8736 258° West 133 153 12,100 48 Climbing Albuquerque Center
Thu 05:25:03 PM 35.6903 -104.9206 259° West 134 154 12,100 48 Level Albuquerque Center
Thu 05:26:05 PM 35.6833 -104.9678 260° West 135 155 12,200 -48 Climbing Albuquerque Center
Thu 05:27:07 PM 35.6733 -105.0219 257° West 135 155 12,000  Descending Albuquerque Center
Thu 05:28:09 PM 35.6658 -105.0700 259° West 137 158 12,200 97 Climbing Albuquerque Center
Thu 05:29:11 PM 35.6589 -105.1186 260° West 139 160 12,200 -97 Level Albuquerque Center
Thu 05:30:13 PM 35.6475 -105.1661 254° West 140 161 12,000 -48 Descending Albuquerque Center
Thu 05:31:15 PM 35.6286 -105.2103 242° Southwest 140 161 12,100 48 Climbing Albuquerque Center
Thu 05:32:17 PM 35.6119 -105.2572 246° West 142 163 12,100 -48 Level Albuquerque Center
Thu 05:33:19 PM 35.5936 -105.3056 245° Southwest 148 170 12,000 -48 Descending Albuquerque Center
Thu 05:34:21 PM 35.5747 -105.3578 246° West 149 171 12,000  Level Albuquerque Center
Thu 05:35:23 PM 35.5606 -105.4025 249° West 147 169 12,000  Level Albuquerque Center
Thu 05:36:25 PM 35.5450 -105.4486 247° West 146 168 12,000  Level Albuquerque Center
Thu 05:37:27 PM 35.5272 -105.4908 243° Southwest 143 165 12,000 48 Level Albuquerque Center
Thu 05:38:29 PM 35.5125 -105.5336 247° West 141 162 12,100 -48 Climbing Albuquerque Center
Thu 05:39:31 PM 35.4969 -105.5828 249° West 140 161 11,900 -97 Descending Albuquerque Center
Thu 05:40:33 PM 35.4781 -105.6275 243° Southwest 142 163 11,900  Level Albuquerque Center
Thu 05:41:35 PM 35.4644 -105.6708 249° West 141 162 11,900 48 Level Albuquerque Center
Thu 05:42:37 PM 35.4494 -105.7125 246° West 138 159 12,000  Climbing Albuquerque Center
Thu 05:43:39 PM 35.4336 -105.7567 246° West 138 159 11,900 -48 Descending Albuquerque Center
Thu 05:44:41 PM 35.4294 -105.8000 263° West 135 155 11,900 48 Level Albuquerque Center
Thu 05:45:43 PM 35.4314 -105.8453 273° West 144 166 12,000 48 Climbing Albuquerque Center
Thu 05:46:45 PM 35.4336 -105.9042 273° West 143 165 12,000  Level Albuquerque Center
Thu 05:47:47 PM 35.4372 -105.9514 275° West 143 165 12,000 -48 Level Albuquerque Center
Thu 05:48:49 PM 35.4411 -105.9981 276° West 142 163 11,900 -97 Descending Albuquerque Center
Thu 05:49:51 PM 35.4450 -106.0447 276° West 141 162 11,800 48 Descending Albuquerque Center
Thu 05:50:53 PM 35.4478 -106.0906 274° West 138 159 12,000 97 Climbing Albuquerque Center
Thu 05:51:55 PM 35.4517 -106.1356 276° West 136 157 12,000 -48 Level Albuquerque Center
Thu 05:52:57 PM 35.4556 -106.1814 276° West 136 157 11,900 -48 Descending Albuquerque Center
Thu 05:53:59 PM 35.4589 -106.2264 275° West 136 157 11,900  Level Albuquerque Center
Thu 05:55:01 PM 35.4647 -106.2819 277° West 142 163 11,900  Level Albuquerque Center
Thu 05:56:03 PM 35.4661 -106.3256 272° West 137 158 11,900  Level Albuquerque Center
Thu 05:57:05 PM 35.4689 -106.3719 274° West 137 158 11,900  Level Albuquerque Center
Thu 05:58:07 PM 35.4725 -106.4189 275° West 137 158 11,900 48 Level Albuquerque Center
Thu 05:59:09 PM 35.4761 -106.4644 276° West 137 158 12,000 48 Climbing Albuquerque Center
Thu 06:00:11 PM 35.4797 -106.5119 275° West 137 158 12,000 -48 Level Albuquerque Center
Thu 06:01:13 PM 35.4825 -106.5650 274° West 135 155 11,900  Descending Albuquerque Center
Thu 06:02:15 PM 35.4864 -106.6103 276° West 135 155 12,000 48 Climbing Albuquerque Center
Thu 06:03:17 PM 35.4883 -106.6564 273° West 135 155 12,000  Level Albuquerque Center
Thu 06:04:20 PM 35.4925 -106.7017 276° West 135 155 12,000 -48 Level Albuquerque Center
Thu 06:05:22 PM 35.4953 -106.7478 274° West 135 155 11,900 -48 Descending Albuquerque Center
Thu 06:06:24 PM 35.4986 -106.8028 274° West 135 155 11,900  Level Albuquerque Center
Thu 06:07:26 PM 35.5019 -106.8486 275° West 135 155 11,900  Level Albuquerque Center
Thu 06:08:28 PM 35.5061 -106.8958 276° West 136 157 11,900 48 Level Albuquerque Center
Thu 06:09:30 PM 35.5081 -106.9428 273° West 137 158 12,000 48 Climbing Albuquerque Center
Thu 06:10:32 PM 35.5300 -106.9764 309° West 143 165 12,000  Level Albuquerque Center
Thu 06:11:33 PM 35.5758 -106.9897 347° North 142 163 12,000 -49 Level Albuquerque Center
Thu 06:12:35 PM 35.6128 -107.0039 343° North 142 163 11,900  Descending Albuquerque Center
Thu 06:13:37 PM 35.6508 -107.0167 345° North 141 162 12,000 48 Climbing Albuquerque Center
Thu 06:14:39 PM 35.6897 -107.0286 346° North 143 165 12,000  Level Albuquerque Center
Thu 06:15:41 PM 35.7267 -107.0411 345° North 142 163 12,000  Level Albuquerque Center
Thu 06:16:43 PM 35.7639 -107.0544 344° North 142 163 12,000  Level Albuquerque Center
Thu 06:17:45 PM 35.8008 -107.0675 344° North 141 162 12,000  Level Albuquerque Center
Thu 06:18:47 PM 35.8450 -107.0828 344° North 141 162 12,000  Level Albuquerque Center
Thu 06:19:49 PM 35.8806 -107.0942 345° North 137 158 12,000  Level Albuquerque Center
Thu 06:20:51 PM 35.9228 -107.1078 345° North 137 158 12,000  Level Albuquerque Center
Thu 06:21:53 PM 35.9597 -107.1181 347° North 138 159 12,000  Level Albuquerque Center
Thu 06:22:55 PM 36.0017 -107.1353 342° North 139 160 12,000  Level Albuquerque Center
Thu 06:23:57 PM 36.0375 -107.1458 347° North 140 161 12,000  Level Albuquerque Center
Thu 06:24:59 PM 36.0722 -107.1594 342° North 139 160 12,000  Level Albuquerque Center
Thu 06:26:00 PM 36.1136 -107.1725 346° North 138 159 12,000  Level Albuquerque Center
Thu 06:27:02 PM 36.1506 -107.1842 346° North 138 159 12,000  Level Albuquerque Center
Thu 06:28:04 PM 36.1903 -107.2028 339° North 139 160 12,000  Level Albuquerque Center
Thu 06:29:06 PM 36.2231 -107.2222 334° Northwest 138 159 12,000 -48 Level Albuquerque Center
Thu 06:30:08 PM 36.2608 -107.2431 336° Northwest 136 157 11,900  Descending Albuquerque Center
Thu 06:31:10 PM 36.2947 -107.2622 335° Northwest 136 157 12,000 48 Climbing Albuquerque Center
Thu 06:32:12 PM 36.3339 -107.2853 335° Northwest 137 158 12,000  Level Albuquerque Center
Thu 06:33:14 PM 36.3669 -107.3039 336° Northwest 137 158 12,000  Level Albuquerque Center
Thu 06:34:16 PM 36.4056 -107.3278 334° Northwest 137 158 12,000 48 Level Albuquerque Center
Thu 06:35:18 PM 36.4406 -107.3472 336° Northwest 137 158 12,100 48 Climbing Albuquerque Center
Thu 06:36:20 PM 36.4786 -107.3669 337° Northwest 137 158 12,100  Level Albuquerque Center
Thu 06:37:21 PM 36.5114 -107.3869 334° Northwest 137 158 12,100  Level Albuquerque Center
Thu 06:38:23 PM 36.5450 -107.4058 336° Northwest 137 158 12,100  Level Albuquerque Center
Thu 06:39:25 PM 36.5842 -107.4283 335° Northwest 137 158 12,100  Level Albuquerque Center
Thu 06:40:27 PM 36.6181 -107.4469 336° Northwest 137 158 12,100 -48 Level Albuquerque Center
Thu 06:41:29 PM 36.6567 -107.4697 335° Northwest 137 158 12,000 -48 Descending Albuquerque Center
Thu 06:42:31 PM 36.6917 -107.4897 335° Northwest 138 159 12,000  Level Albuquerque Center
Thu 06:43:33 PM 36.7317 -107.5117 336° Northwest 138 159 12,000  Level Albuquerque Center
Thu 06:44:56 PM 36.7811 -107.5411 335° Northwest 140 161 12,000  Level Denver Center
Thu 06:45:58 PM 36.8167 -107.5600 337° Northwest 144 166 12,000 48 Level Denver Center
Thu 06:47:00 PM 36.8500 -107.5792 335° Northwest 138 159 12,100 48 Climbing Denver Center
Thu 06:48:02 PM 36.8833 -107.5989 335° Northwest 133 153 12,100 -48 Level Denver Center
Thu 06:49:04 PM 36.9253 -107.6306 329° Northwest 141 162 12,000 -97 Descending Denver Center
Thu 06:50:06 PM 36.9561 -107.6575 325° Northwest 142 163 11,900 -97 Descending Denver Center

Login

Don't have an account? Register now (free) for customized features, flight alerts, and more!